createdAt,value
2023-04-08T00:03:08.017Z,98834.48
2023-04-08T00:06:03.272Z,98836.30
2023-04-08T00:08:57.318Z,98837.13
2023-04-08T00:11:51.127Z,98836.30
2023-04-08T00:14:45.066Z,98836.08
2023-04-08T00:17:39.065Z,98839.08
2023-04-08T00:20:32.804Z,98846.93
2023-04-08T00:23:26.500Z,98845.95
2023-04-08T00:26:20.476Z,98849.40
2023-04-08T00:29:14.114Z,98846.96
2023-04-08T00:32:08.329Z,98843.57
2023-04-08T00:35:03.615Z,98850.30
2023-04-08T00:37:57.569Z,98852.52
2023-04-08T00:40:51.319Z,98848.02
2023-04-08T00:43:45.605Z,98851.27
2023-04-08T00:46:42.533Z,98850.55
2023-04-08T00:49:36.633Z,98855.34
2023-04-08T00:52:30.596Z,98856.23
2023-04-08T00:55:24.307Z,98861.29
2023-04-08T00:58:18.572Z,98858.98
2023-04-08T01:01:38.706Z,98864.02
2023-04-08T01:04:59.189Z,98866.75
2023-04-08T01:07:53.668Z,98869.35
2023-04-08T01:10:49.191Z,98865.59
2023-04-08T01:13:46.464Z,98871.10
2023-04-08T01:16:42.375Z,98868.46
2023-04-08T01:19:41.599Z,98866.85
2023-04-08T01:23:05.631Z,98872.44
2023-04-08T01:25:59.900Z,98876.46
2023-04-08T01:28:57.540Z,98880.48
2023-04-08T01:31:51.191Z,98882.43
2023-04-08T01:34:46.291Z,98883.77
2023-04-08T01:37:41.470Z,98886.16
2023-04-08T01:40:36.831Z,98883.42
2023-04-08T01:43:32.782Z,98885.05
2023-04-08T01:46:28.160Z,98885.16
2023-04-08T01:49:25.394Z,98882.22
2023-04-08T01:52:19.535Z,98886.52
2023-04-08T01:55:13.795Z,98886.86
2023-04-08T01:58:09.969Z,98884.88
2023-04-08T02:01:04.176Z,98889.70
2023-04-08T02:04:00.497Z,98889.52
2023-04-08T02:06:54.582Z,98890.09
2023-04-08T02:09:48.327Z,98888.56
2023-04-08T02:12:42.729Z,98892.48
2023-04-08T02:15:58.941Z,98896.70
2023-04-08T02:19:02.498Z,98898.92
2023-04-08T02:21:59.121Z,98902.67
2023-04-08T02:24:54.248Z,98902.89
2023-04-08T02:27:49.535Z,98901.98
2023-04-08T02:30:50.778Z,98901.67
2023-04-08T02:33:34.918Z,98908.34
2023-04-08T02:36:29.038Z,98905.25
2023-04-08T02:39:22.726Z,98905.48
2023-04-08T02:42:16.542Z,98900.42
2023-04-08T02:45:12.749Z,98903.59
2023-04-08T02:48:07.014Z,98905.03
2023-04-08T02:51:00.959Z,98907.63
2023-04-08T02:53:55.368Z,98909.84
2023-04-08T02:56:48.936Z,98913.45
2023-04-08T02:59:42.662Z,98916.81
2023-04-08T03:02:36.546Z,98918.83
2023-04-08T03:05:30.339Z,98925.02
2023-04-08T03:08:24.638Z,98925.52
2023-04-08T03:11:18.581Z,98924.71
2023-04-08T03:14:12.285Z,98930.17
2023-04-08T03:17:06.064Z,98928.60
2023-04-08T03:19:59.738Z,98932.09
2023-04-08T03:22:53.510Z,98930.88
2023-04-08T03:25:47.326Z,98937.01
2023-04-08T03:28:41.190Z,98934.23
2023-04-08T03:31:34.824Z,98935.13
2023-04-08T03:34:28.686Z,98933.23
2023-04-08T03:37:22.372Z,98936.40
2023-04-08T03:40:17.251Z,98938.82
2023-04-08T03:43:11.812Z,98945.44
2023-04-08T03:46:05.444Z,98945.16
2023-04-08T03:48:59.022Z,98946.39
2023-04-08T03:51:52.919Z,98946.32
2023-04-08T03:54:36.629Z,98944.55
2023-04-08T03:57:30.385Z,98950.11
2023-04-08T04:00:24.539Z,98948.08
2023-04-08T04:03:18.630Z,98952.35
2023-04-08T04:06:12.509Z,98955.14
2023-04-08T04:09:06.289Z,98957.48
2023-04-08T04:12:00.108Z,98962.14
2023-04-08T04:14:54.153Z,98963.39
2023-04-08T04:17:51.151Z,98969.27
2023-04-08T04:20:45.798Z,98974.91
2023-04-08T04:23:39.547Z,98978.77
2023-04-08T04:26:33.199Z,98979.91
2023-04-08T04:29:26.959Z,98979.56
2023-04-08T04:32:20.787Z,98981.91
2023-04-08T04:35:15.042Z,98983.88
2023-04-08T04:38:12.429Z,98984.02
2023-04-08T04:41:06.233Z,98987.65
2023-04-08T04:44:00.037Z,98991.39
2023-04-08T04:46:53.988Z,98992.39
2023-04-08T04:49:48.285Z,98993.52
2023-04-08T04:52:41.944Z,98995.16
2023-04-08T04:55:37.526Z,98997.56
2023-04-08T04:58:32.347Z,98997.58
2023-04-08T05:01:26.155Z,99000.09
2023-04-08T05:04:19.862Z,99001.39
2023-04-08T05:07:13.551Z,99008.03
2023-04-08T05:10:08.774Z,99011.17
2023-04-08T05:13:02.538Z,99015.23
2023-04-08T05:15:56.408Z,99018.52
2023-04-08T05:18:50.521Z,99021.16
2023-04-08T05:21:44.264Z,99021.59
2023-04-08T05:24:37.888Z,99025.56
2023-04-08T05:27:31.589Z,99025.73
2023-04-08T05:30:26.264Z,99026.80
2023-04-08T05:33:20.076Z,99027.11
2023-04-08T05:36:15.354Z,99030.63
2023-04-08T05:39:08.993Z,99034.66
2023-04-08T05:42:03.211Z,99039.42
2023-04-08T05:44:56.756Z,99036.95
2023-04-08T05:47:50.634Z,99039.46
2023-04-08T05:50:44.575Z,99042.66
2023-04-08T05:53:30.709Z,99042.15
2023-04-08T05:56:24.709Z,99044.05
2023-04-08T05:59:18.603Z,99046.67
2023-04-08T06:02:12.434Z,99048.05
2023-04-08T06:05:07.209Z,99055.37
2023-04-08T06:08:01.052Z,99060.02
2023-04-08T06:10:55.220Z,99063.05
2023-04-08T06:13:48.805Z,99065.42
2023-04-08T06:16:42.521Z,99066.92
2023-04-08T06:19:36.325Z,99073.46
2023-04-08T06:22:29.893Z,99079.25
2023-04-08T06:25:24.726Z,99076.95
2023-04-08T06:28:18.432Z,99080.98
2023-04-08T06:31:12.295Z,99084.88
2023-04-08T06:34:06.219Z,99092.07
2023-04-08T06:37:00.389Z,99097.02
2023-04-08T06:39:54.139Z,99095.38
2023-04-08T06:42:48.503Z,99103.70
2023-04-08T06:45:43.118Z,99104.96
2023-04-08T06:48:37.776Z,99105.10
2023-04-08T06:51:31.649Z,99104.48
2023-04-08T06:54:25.854Z,99106.97
2023-04-08T06:57:19.637Z,99105.52
2023-04-08T07:00:15.522Z,99107.16
2023-04-08T07:03:09.524Z,99105.14
2023-04-08T07:06:04.488Z,99108.16
2023-04-08T07:08:58.252Z,99111.60
2023-04-08T07:11:52.029Z,99123.91
2023-04-08T07:14:45.644Z,99124.70
2023-04-08T07:17:39.780Z,99129.42
2023-04-08T07:20:35.826Z,99128.05
2023-04-08T07:23:29.540Z,99130.14
2023-04-08T07:26:23.423Z,99131.55
2023-04-08T07:29:17.589Z,99128.76
2023-04-08T07:32:11.417Z,99133.02
2023-04-08T07:35:05.551Z,99133.42
2023-04-08T07:37:59.359Z,99132.21
2023-04-08T07:40:53.362Z,99135.27
2023-04-08T07:43:46.961Z,99133.39
2023-04-08T07:46:42.347Z,99137.23
2023-04-08T07:49:36.734Z,99137.99
2023-04-08T07:52:31.046Z,99137.98
2023-04-08T07:55:24.631Z,99137.54
2023-04-08T07:58:18.389Z,99136.71
2023-04-08T08:01:22.278Z,99138.44
2023-04-08T08:04:16.595Z,99139.69
2023-04-08T08:07:10.584Z,99149.71
2023-04-08T08:10:04.289Z,99143.71
2023-04-08T08:12:57.898Z,99151.23
2023-04-08T08:15:54.751Z,99148.88
2023-04-08T08:18:48.491Z,99152.67
2023-04-08T08:21:42.531Z,99153.74
2023-04-08T08:24:36.082Z,99152.80
2023-04-08T08:27:29.866Z,99157.23
2023-04-08T08:30:23.794Z,99153.91
2023-04-08T08:33:17.391Z,99160.17
2023-04-08T08:36:11.504Z,99161.66
2023-04-08T08:39:05.252Z,99155.94
2023-04-08T08:41:59.216Z,99154.30
2023-04-08T08:44:53.101Z,99156.51
2023-04-08T08:47:48.023Z,99162.00
2023-04-08T08:50:43.465Z,99170.58
2023-04-08T08:53:37.414Z,99180.60
2023-04-08T08:56:31.434Z,99178.50
2023-04-08T08:59:25.368Z,99187.48
2023-04-08T09:02:35.718Z,99186.56
2023-04-08T09:05:29.850Z,99194.84
2023-04-08T09:08:35.426Z,99193.02
2023-04-08T09:11:29.060Z,99194.67
2023-04-08T09:14:27.675Z,99201.48
2023-04-08T09:17:35.559Z,99206.11
2023-04-08T09:20:29.446Z,99198.17
2023-04-08T09:23:23.006Z,99194.71
2023-04-08T09:26:19.474Z,99199.26
2023-04-08T09:29:25.434Z,99197.27
2023-04-08T09:32:19.645Z,99198.48
2023-04-08T09:35:13.795Z,99202.92
2023-04-08T09:38:07.595Z,99204.04
2023-04-08T09:41:07.828Z,99205.84
2023-04-08T09:44:04.568Z,99204.10
2023-04-08T09:47:23.284Z,99203.67
2023-04-08T09:50:20.102Z,99204.34
2023-04-08T09:53:22.758Z,99208.26
2023-04-08T09:56:18.489Z,99209.02
2023-04-08T09:59:21.526Z,99204.35
2023-04-08T10:02:23.198Z,99204.65
2023-04-08T10:05:18.505Z,99208.71
2023-04-08T10:08:12.845Z,99209.23
2023-04-08T10:11:07.167Z,99212.05
2023-04-08T10:14:01.150Z,99216.94
2023-04-08T10:17:27.655Z,99220.56
2023-04-08T10:20:46.119Z,99219.91
2023-04-08T10:24:05.929Z,99216.08
2023-04-08T10:26:59.716Z,99212.11
2023-04-08T10:29:53.662Z,99213.56
2023-04-08T10:32:47.362Z,99218.45
2023-04-08T10:35:46.429Z,99220.78
2023-04-08T10:38:42.333Z,99219.20
2023-04-08T10:41:36.610Z,99213.84
2023-04-08T10:44:30.342Z,99215.65
2023-04-08T10:47:30.827Z,99218.84
2023-04-08T10:50:24.994Z,99214.34
2023-04-08T10:53:18.847Z,99216.53
2023-04-08T10:56:15.628Z,99218.16
2023-04-08T10:59:11.794Z,99221.52
2023-04-08T11:02:05.712Z,99218.91
2023-04-08T11:05:01.164Z,99224.18
2023-04-08T11:07:55.825Z,99217.07
2023-04-08T11:10:49.727Z,99215.69
2023-04-08T11:13:53.491Z,99216.12
2023-04-08T11:16:47.597Z,99222.30
2023-04-08T11:19:41.556Z,99219.91
2023-04-08T11:22:35.842Z,99223.13
2023-04-08T11:25:30.338Z,99220.73
2023-04-08T11:28:25.943Z,99222.66
2023-04-08T11:31:23.537Z,99215.31
2023-04-08T11:34:25.653Z,99213.02
2023-04-08T11:37:19.555Z,99216.73
2023-04-08T11:40:21.021Z,99223.55
2023-04-08T11:43:16.440Z,99219.60
2023-04-08T11:46:15.205Z,99211.94
2023-04-08T11:49:11.922Z,99215.86
2023-04-08T11:52:05.993Z,99215.14
2023-04-08T11:54:59.735Z,99213.92
2023-04-08T11:57:53.847Z,99214.27
2023-04-08T12:00:49.137Z,99216.09
2023-04-08T12:04:06.883Z,99217.35
2023-04-08T12:07:00.624Z,99215.61
2023-04-08T12:09:54.685Z,99217.55
2023-04-08T12:12:48.363Z,99226.90
2023-04-08T12:15:42.198Z,99225.71
2023-04-08T12:18:36.753Z,99221.02
2023-04-08T12:21:30.419Z,99217.95
2023-04-08T12:24:12.596Z,99215.41
2023-04-08T12:27:06.496Z,99215.06
2023-04-08T12:30:00.282Z,99215.30
2023-04-08T12:32:55.245Z,99215.85
2023-04-08T12:35:49.108Z,99219.72
2023-04-08T12:38:42.714Z,99220.92
2023-04-08T12:41:36.397Z,99223.85
2023-04-08T12:44:30.033Z,99226.16
2023-04-08T12:47:25.983Z,99227.77
2023-04-08T12:50:20.214Z,99227.23
2023-04-08T12:53:13.837Z,99228.28
2023-04-08T12:56:08.194Z,99227.52
2023-04-08T12:59:01.989Z,99224.56
2023-04-08T13:01:56.108Z,99229.31
2023-04-08T13:04:49.724Z,99232.61
2023-04-08T13:07:43.365Z,99225.64
2023-04-08T13:10:36.991Z,99226.83
2023-04-08T13:13:30.796Z,99235.75
2023-04-08T13:16:24.954Z,99241.48
2023-04-08T13:19:18.649Z,99236.02
2023-04-08T13:22:12.290Z,99236.98
2023-04-08T13:25:07.183Z,99241.46
2023-04-08T13:28:01.156Z,99244.20
2023-04-08T13:30:55.849Z,99245.86
2023-04-08T13:33:49.363Z,99244.58
2023-04-08T13:36:43.009Z,99240.27
2023-04-08T13:39:37.888Z,99239.65
2023-04-08T13:42:33.370Z,99229.38
2023-04-08T13:45:27.756Z,99222.80
2023-04-08T13:48:21.578Z,99221.20
2023-04-08T13:51:15.415Z,99221.67
2023-04-08T13:54:09.214Z,99227.27
2023-04-08T13:57:02.825Z,99225.53
2023-04-08T13:59:56.536Z,99228.16
2023-04-08T14:02:50.935Z,99227.48
2023-04-08T14:05:45.390Z,99227.70
2023-04-08T14:08:39.074Z,99231.29
2023-04-08T14:11:32.680Z,99227.28
2023-04-08T14:14:26.379Z,99226.85
2023-04-08T14:17:20.133Z,99219.52
2023-04-08T14:20:14.546Z,99220.50
2023-04-08T14:23:08.231Z,99222.45
2023-04-08T14:26:02.478Z,99222.60
2023-04-08T14:28:56.975Z,99221.30
2023-04-08T14:31:50.842Z,99216.54
2023-04-08T14:34:44.732Z,99211.96
2023-04-08T14:37:38.813Z,99212.51
2023-04-08T14:40:32.474Z,99213.45
2023-04-08T14:43:26.155Z,99213.91
2023-04-08T14:46:19.997Z,99210.05
2023-04-08T14:49:13.641Z,99213.23
2023-04-08T14:52:07.365Z,99212.23
2023-04-08T14:55:01.017Z,99213.83
2023-04-08T14:57:54.614Z,99216.11
2023-04-08T15:00:48.767Z,99215.08
2023-04-08T15:03:42.554Z,99212.95
2023-04-08T15:06:36.590Z,99213.08
2023-04-08T15:09:30.112Z,99213.14
2023-04-08T15:12:24.460Z,99215.56
2023-04-08T15:15:18.360Z,99214.38
2023-04-08T15:18:12.276Z,99214.38
2023-04-08T15:21:06.391Z,99214.75
2023-04-08T15:24:00.036Z,99209.94
2023-04-08T15:26:53.690Z,99214.52
2023-04-08T15:29:47.555Z,99214.85
2023-04-08T15:32:41.365Z,99213.21
2023-04-08T15:35:35.104Z,99215.60
2023-04-08T15:38:28.847Z,99213.14
2023-04-08T15:41:22.860Z,99213.36
2023-04-08T15:44:17.359Z,99213.38
2023-04-08T15:47:11.121Z,99213.72
2023-04-08T15:50:05.113Z,99212.97
2023-04-08T15:52:59.784Z,99217.58
2023-04-08T15:55:53.589Z,99217.59
2023-04-08T15:58:47.890Z,99220.56
2023-04-08T16:01:42.045Z,99225.59
2023-04-08T16:04:35.921Z,99224.52
2023-04-08T16:07:29.642Z,99226.20
2023-04-08T16:10:23.507Z,99228.58
2023-04-08T16:13:21.376Z,99229.10
2023-04-08T16:16:18.625Z,99231.27
2023-04-08T16:19:12.492Z,99231.15
2023-04-08T16:22:06.459Z,99237.69
2023-04-08T16:25:00.151Z,99239.59
2023-04-08T16:27:54.059Z,99241.63
2023-04-08T16:30:48.054Z,99239.08
2023-04-08T16:33:41.752Z,99240.98
2023-04-08T16:36:35.766Z,99241.80
2023-04-08T16:39:29.550Z,99241.34
2023-04-08T16:42:23.136Z,99243.90
2023-04-08T16:45:17.259Z,99245.25
2023-04-08T16:48:12.585Z,99249.10
2023-04-08T16:50:46.386Z,99253.84
2023-04-08T16:53:41.088Z,99255.27
2023-04-08T16:56:35.124Z,99254.52
2023-04-08T16:59:29.944Z,99257.63
2023-04-08T17:02:23.662Z,99260.23
2023-04-08T17:05:17.709Z,99261.70
2023-04-08T17:08:11.527Z,99262.99
2023-04-08T17:10:55.327Z,99268.91
2023-04-08T17:13:49.879Z,99270.83
2023-04-08T17:16:43.986Z,99277.06
2023-04-08T17:19:38.234Z,99276.77
2023-04-08T17:22:14.752Z,99279.60
2023-04-08T17:25:09.966Z,99281.09
2023-04-08T17:28:03.823Z,99281.84
2023-04-08T17:30:57.568Z,99288.52
2023-04-08T17:33:51.664Z,99288.73
2023-04-08T17:36:45.952Z,99293.83
2023-04-08T17:39:40.830Z,99298.42
2023-04-08T17:42:34.750Z,99297.48
2023-04-08T17:45:29.023Z,99298.64
2023-04-08T17:48:23.125Z,99308.53
2023-04-08T17:51:17.411Z,99307.48
2023-04-08T17:54:11.646Z,99306.89
2023-04-08T17:57:05.357Z,99310.17
2023-04-08T17:59:59.113Z,99308.86
2023-04-08T18:02:53.270Z,99311.73
2023-04-08T18:05:47.577Z,99313.84
2023-04-08T18:08:41.284Z,99316.20
2023-04-08T18:11:34.936Z,99311.85
2023-04-08T18:14:29.240Z,99318.70
2023-04-08T18:17:23.669Z,99314.37
2023-04-08T18:20:18.422Z,99315.73
2023-04-08T18:23:12.458Z,99320.69
2023-04-08T18:26:06.481Z,99328.88
2023-04-08T18:29:00.460Z,99331.05
2023-04-08T18:31:54.378Z,99329.05
2023-04-08T18:34:48.821Z,99332.47
2023-04-08T18:37:42.837Z,99337.40
2023-04-08T18:40:37.187Z,99340.05
2023-04-08T18:43:30.895Z,99337.41
2023-04-08T18:46:24.895Z,99339.14
2023-04-08T18:49:18.737Z,99336.63
2023-04-08T18:52:13.185Z,99338.92
2023-04-08T18:54:52.766Z,99337.38
2023-04-08T18:57:46.983Z,99342.12
2023-04-08T19:00:42.033Z,99340.65
2023-04-08T19:03:37.346Z,99340.17
2023-04-08T19:06:33.713Z,99342.00
2023-04-08T19:09:27.471Z,99347.45
2023-04-08T19:12:21.341Z,99349.60
2023-04-08T19:15:00.306Z,99358.42
2023-04-08T19:17:54.629Z,99350.02
2023-04-08T19:20:48.478Z,99353.09
2023-04-08T19:23:42.523Z,99351.65
2023-04-08T19:26:36.347Z,99354.99
2023-04-08T19:29:32.557Z,99351.86
2023-04-08T19:32:26.523Z,99350.64
2023-04-08T19:35:20.401Z,99344.37
2023-04-08T19:38:14.547Z,99345.56
2023-04-08T19:41:08.348Z,99337.60
2023-04-08T19:44:03.394Z,99337.91
2023-04-08T19:46:57.919Z,99339.86
2023-04-08T19:49:51.862Z,99338.11
2023-04-08T19:52:45.642Z,99341.66
2023-04-08T19:55:39.299Z,99338.70
2023-04-08T19:58:32.909Z,99343.23
2023-04-08T20:01:26.900Z,99341.26
2023-04-08T20:04:20.665Z,99342.79
2023-04-08T20:07:14.484Z,99338.02
2023-04-08T20:10:09.767Z,99336.67
2023-04-08T20:13:03.382Z,99336.97
2023-04-08T20:15:58.004Z,99335.16
2023-04-08T20:18:52.048Z,99338.66
2023-04-08T20:21:46.636Z,99331.86
2023-04-08T20:24:40.645Z,99331.52
2023-04-08T20:27:35.787Z,99334.58
2023-04-08T20:30:29.993Z,99333.90
2023-04-08T20:33:23.726Z,99331.17
2023-04-08T20:36:17.553Z,99331.14
2023-04-08T20:39:13.654Z,99334.71
2023-04-08T20:42:09.372Z,99330.05
2023-04-08T20:45:13.550Z,99339.30
2023-04-08T20:48:08.541Z,99334.45
2023-04-08T20:51:02.173Z,99337.23
2023-04-08T20:53:57.066Z,99337.56
2023-04-08T20:56:50.678Z,99336.73
2023-04-08T20:59:44.720Z,99346.79
2023-04-08T21:02:38.929Z,99349.79
2023-04-08T21:05:32.639Z,99358.69
2023-04-08T21:08:26.476Z,99361.94
2023-04-08T21:11:21.045Z,99363.71
2023-04-08T21:14:14.734Z,99369.91
2023-04-08T21:17:09.206Z,99369.97
2023-04-08T21:20:03.089Z,99365.42
2023-04-08T21:22:58.909Z,99360.59
2023-04-08T21:25:52.576Z,99361.30
2023-04-08T21:28:46.337Z,99365.20
2023-04-08T21:31:41.164Z,99367.69
2023-04-08T21:34:35.031Z,99372.26
2023-04-08T21:37:28.785Z,99372.23
2023-04-08T21:40:23.104Z,99371.15
2023-04-08T21:43:16.939Z,99375.95
2023-04-08T21:46:10.642Z,99385.45
2023-04-08T21:49:04.384Z,99384.03
2023-04-08T21:51:58.013Z,99385.09
2023-04-08T21:54:53.616Z,99378.82
2023-04-08T21:57:48.972Z,99378.91
2023-04-08T22:00:42.700Z,99379.64
2023-04-08T22:03:30.998Z,99376.59
2023-04-08T22:06:32.248Z,99374.24
2023-04-08T22:09:26.540Z,99375.80
2023-04-08T22:12:20.511Z,99382.63
2023-04-08T22:15:15.098Z,99377.52
2023-04-08T22:18:09.285Z,99371.42
2023-04-08T22:21:03.030Z,99364.86
2023-04-08T22:23:56.694Z,99358.61
2023-04-08T22:26:50.668Z,99356.17
2023-04-08T22:29:44.312Z,99351.81
2023-04-08T22:32:37.956Z,99338.84
2023-04-08T22:35:31.732Z,99335.84
2023-04-08T22:38:25.499Z,99338.77
2023-04-08T22:41:23.455Z,99335.09
2023-04-08T22:44:16.965Z,99335.77
2023-04-08T22:47:10.897Z,99336.29
2023-04-08T22:50:04.661Z,99336.73
2023-04-08T22:52:58.243Z,99345.14
2023-04-08T22:55:51.990Z,99344.66
2023-04-08T22:58:45.649Z,99341.13
2023-04-08T23:01:39.498Z,99343.53
2023-04-08T23:04:33.214Z,99343.14
2023-04-08T23:07:27.133Z,99343.29
2023-04-08T23:10:21.032Z,99347.12
2023-04-08T23:13:15.045Z,99363.91
2023-04-08T23:16:09.895Z,99366.83
2023-04-08T23:19:03.636Z,99362.11
2023-04-08T23:21:57.265Z,99359.00
2023-04-08T23:24:50.971Z,99344.73
2023-04-08T23:27:45.664Z,99332.21
2023-04-08T23:30:40.279Z,99331.94
2023-04-08T23:33:33.999Z,99326.10
2023-04-08T23:36:28.083Z,99322.95
2023-04-08T23:39:21.602Z,99321.40
2023-04-08T23:42:15.206Z,99324.66
2023-04-08T23:45:10.755Z,99314.00
2023-04-08T23:48:04.436Z,99318.30
2023-04-08T23:50:58.478Z,99315.97
2023-04-08T23:53:52.308Z,99318.48
2023-04-08T23:56:45.850Z,99324.69
2023-04-08T23:59:39.498Z,99325.08
